Terminal Aerodrome Forecast
Issued by NWS

Home | Current Version | Previous Version | Graphics & Text | Print | Product List | Glossary On
Versions: 1 2 3 4 5 6 7 8 9 10 11 12 13 14 15 16 17 18 19 20 21 22 23
000
FTUS43 KGLD 262334
TAFMCK
TAF
KMCK 262334Z 2700/2724 01009KT P6SM FEW050
     FM270200 05008KT P6SM OVC100
     FM271400 12008KT P6SM OVC050
     FM272000 16015G22KT P6SM OVC030=

USA.gov is the U.S. government's official web portal to all federal, state and local government web resources and services.